sensor_id;sensor_type;location;lat;lon;timestamp;P1;durP1;ratioP1;P2;durP2;ratioP2
65035;SDS011;51603;49.300;8.880;2022-08-25T00:01:22;3.90;;;3.40;;
65035;SDS011;51603;49.300;8.880;2022-08-25T00:03:54;3.90;;;3.50;;
65035;SDS011;51603;49.300;8.880;2022-08-25T00:06:20;4.40;;;3.90;;
65035;SDS011;51603;49.300;8.880;2022-08-25T00:08:46;4.73;;;3.90;;
65035;SDS011;51603;49.300;8.880;2022-08-25T00:11:14;6.27;;;4.40;;
65035;SDS011;51603;49.300;8.880;2022-08-25T00:13:46;4.43;;;3.83;;
65035;SDS011;51603;49.300;8.880;2022-08-25T00:16:15;4.00;;;3.60;;
65035;SDS011;51603;49.300;8.880;2022-08-25T00:18:43;5.67;;;3.70;;
65035;SDS011;51603;49.300;8.880;2022-08-25T00:21:10;5.80;;;3.47;;
65035;SDS011;51603;49.300;8.880;2022-08-25T00:23:37;3.87;;;3.30;;
65035;SDS011;51603;49.300;8.880;2022-08-25T00:26:03;3.43;;;3.13;;
65035;SDS011;51603;49.300;8.880;2022-08-25T00:28:28;4.10;;;3.67;;
65035;SDS011;51603;49.300;8.880;2022-08-25T00:30:55;7.37;;;3.47;;
65035;SDS011;51603;49.300;8.880;2022-08-25T00:33:21;4.30;;;3.90;;
65035;SDS011;51603;49.300;8.880;2022-08-25T00:35:46;3.67;;;3.37;;
65035;SDS011;51603;49.300;8.880;2022-08-25T00:38:12;4.20;;;3.73;;
65035;SDS011;51603;49.300;8.880;2022-08-25T00:40:38;6.43;;;4.33;;
65035;SDS011;51603;49.300;8.880;2022-08-25T00:43:05;4.50;;;4.03;;
65035;SDS011;51603;49.300;8.880;2022-08-25T00:45:32;3.90;;;3.47;;
65035;SDS011;51603;49.300;8.880;2022-08-25T00:47:58;3.97;;;3.50;;
65035;SDS011;51603;49.300;8.880;2022-08-25T00:50:25;4.77;;;4.03;;
65035;SDS011;51603;49.300;8.880;2022-08-25T00:52:52;5.13;;;4.20;;
65035;SDS011;51603;49.300;8.880;2022-08-25T00:55:22;3.93;;;3.53;;
65035;SDS011;51603;49.300;8.880;2022-08-25T01:03:41;5.53;;;4.37;;
65035;SDS011;51603;49.300;8.880;2022-08-25T01:06:07;5.43;;;4.50;;
65035;SDS011;51603;49.300;8.880;2022-08-25T01:08:35;5.47;;;4.27;;
65035;SDS011;51603;49.300;8.880;2022-08-25T01:11:02;4.90;;;3.87;;
65035;SDS011;51603;49.300;8.880;2022-08-25T01:13:50;5.80;;;4.70;;
65035;SDS011;51603;49.300;8.880;2022-08-25T01:16:18;5.30;;;4.50;;
65035;SDS011;51603;49.300;8.880;2022-08-25T01:21:17;4.90;;;4.50;;
65035;SDS011;51603;49.300;8.880;2022-08-25T01:23:45;4.90;;;4.23;;
65035;SDS011;51603;49.300;8.880;2022-08-25T01:26:17;4.90;;;4.50;;
65035;SDS011;51603;49.300;8.880;2022-08-25T01:28:44;4.60;;;4.20;;
65035;SDS011;51603;49.300;8.880;2022-08-25T01:31:30;5.73;;;4.20;;
65035;SDS011;51603;49.300;8.880;2022-08-25T01:33:57;5.80;;;5.20;;
65035;SDS011;51603;49.300;8.880;2022-08-25T01:36:23;5.93;;;5.30;;
65035;SDS011;51603;49.300;8.880;2022-08-25T01:38:49;5.40;;;4.90;;
65035;SDS011;51603;49.300;8.880;2022-08-25T01:41:16;5.20;;;4.70;;
65035;SDS011;51603;49.300;8.880;2022-08-25T01:43:50;5.43;;;5.00;;
65035;SDS011;51603;49.300;8.880;2022-08-25T01:46:16;5.37;;;4.87;;
65035;SDS011;51603;49.300;8.880;2022-08-25T01:48:41;5.70;;;4.97;;
65035;SDS011;51603;49.300;8.880;2022-08-25T01:51:07;6.30;;;5.70;;
65035;SDS011;51603;49.300;8.880;2022-08-25T01:53:33;5.27;;;4.80;;
65035;SDS011;51603;49.300;8.880;2022-08-25T01:55:59;5.70;;;5.03;;
65035;SDS011;51603;49.300;8.880;2022-08-25T01:58:35;5.70;;;5.10;;
65035;SDS011;51603;49.300;8.880;2022-08-25T02:01:04;5.83;;;5.33;;
65035;SDS011;51603;49.300;8.880;2022-08-25T02:03:32;6.70;;;5.20;;
65035;SDS011;51603;49.300;8.880;2022-08-25T02:06:02;6.20;;;5.60;;
65035;SDS011;51603;49.300;8.880;2022-08-25T02:08:27;8.17;;;6.40;;
65035;SDS011;51603;49.300;8.880;2022-08-25T02:10:53;5.97;;;5.47;;
65035;SDS011;51603;49.300;8.880;2022-08-25T02:13:20;6.30;;;5.80;;
65035;SDS011;51603;49.300;8.880;2022-08-25T02:15:46;6.17;;;5.57;;
65035;SDS011;51603;49.300;8.880;2022-08-25T02:18:15;6.40;;;5.80;;
65035;SDS011;51603;49.300;8.880;2022-08-25T02:20:42;6.50;;;5.90;;
65035;SDS011;51603;49.300;8.880;2022-08-25T02:23:07;7.33;;;6.53;;
65035;SDS011;51603;49.300;8.880;2022-08-25T02:25:35;6.20;;;5.63;;
65035;SDS011;51603;49.300;8.880;2022-08-25T02:28:03;6.60;;;6.00;;
65035;SDS011;51603;49.300;8.880;2022-08-25T02:30:29;8.70;;;6.00;;
65035;SDS011;51603;49.300;8.880;2022-08-25T02:32:55;5.93;;;5.03;;
65035;SDS011;51603;49.300;8.880;2022-08-25T02:35:21;7.97;;;6.57;;
65035;SDS011;51603;49.300;8.880;2022-08-25T02:37:49;7.00;;;6.10;;
65035;SDS011;51603;49.300;8.880;2022-08-25T02:40:15;6.07;;;5.47;;
65035;SDS011;51603;49.300;8.880;2022-08-25T02:42:41;7.50;;;6.63;;
65035;SDS011;51603;49.300;8.880;2022-08-25T02:45:07;6.50;;;5.90;;
65035;SDS011;51603;49.300;8.880;2022-08-25T02:47:33;7.30;;;6.60;;
65035;SDS011;51603;49.300;8.880;2022-08-25T02:50:00;6.63;;;5.93;;
65035;SDS011;51603;49.300;8.880;2022-08-25T02:52:26;6.80;;;6.20;;
65035;SDS011;51603;49.300;8.880;2022-08-25T02:54:52;8.40;;;6.50;;
65035;SDS011;51603;49.300;8.880;2022-08-25T02:57:19;7.03;;;6.23;;
65035;SDS011;51603;49.300;8.880;2022-08-25T02:59:45;6.50;;;5.90;;
65035;SDS011;51603;49.300;8.880;2022-08-25T03:02:12;7.20;;;6.50;;
65035;SDS011;51603;49.300;8.880;2022-08-25T03:04:38;7.37;;;6.77;;
65035;SDS011;51603;49.300;8.880;2022-08-25T03:07:04;7.27;;;6.50;;
65035;SDS011;51603;49.300;8.880;2022-08-25T03:09:30;7.00;;;6.30;;
65035;SDS011;51603;49.300;8.880;2022-08-25T03:11:55;7.70;;;7.00;;
65035;SDS011;51603;49.300;8.880;2022-08-25T03:14:21;8.20;;;7.40;;
65035;SDS011;51603;49.300;8.880;2022-08-25T03:16:46;6.60;;;6.07;;
65035;SDS011;51603;49.300;8.880;2022-08-25T03:19:12;7.40;;;6.70;;
65035;SDS011;51603;49.300;8.880;2022-08-25T03:21:38;8.90;;;6.30;;
65035;SDS011;51603;49.300;8.880;2022-08-25T03:24:04;8.73;;;6.67;;
65035;SDS011;51603;49.300;8.880;2022-08-25T03:26:30;7.60;;;7.00;;
65035;SDS011;51603;49.300;8.880;2022-08-25T03:29:14;7.80;;;7.00;;
65035;SDS011;51603;49.300;8.880;2022-08-25T03:31:41;6.80;;;6.20;;
65035;SDS011;51603;49.300;8.880;2022-08-25T03:34:08;7.83;;;7.13;;
65035;SDS011;51603;49.300;8.880;2022-08-25T03:36:34;7.77;;;7.00;;
65035;SDS011;51603;49.300;8.880;2022-08-25T03:39:00;7.70;;;7.00;;
65035;SDS011;51603;49.300;8.880;2022-08-25T03:41:27;15.50;;;7.13;;
65035;SDS011;51603;49.300;8.880;2022-08-25T03:43:54;7.33;;;6.70;;
65035;SDS011;51603;49.300;8.880;2022-08-25T03:46:22;8.33;;;7.00;;
65035;SDS011;51603;49.300;8.880;2022-08-25T03:48:49;8.70;;;7.80;;
65035;SDS011;51603;49.300;8.880;2022-08-25T03:51:22;9.63;;;7.13;;
65035;SDS011;51603;49.300;8.880;2022-08-25T03:54:09;9.77;;;6.33;;
65035;SDS011;51603;49.300;8.880;2022-08-25T03:56:35;8.40;;;7.30;;
65035;SDS011;51603;49.300;8.880;2022-08-25T03:59:02;7.57;;;6.87;;
65035;SDS011;51603;49.300;8.880;2022-08-25T04:01:28;8.07;;;7.27;;
65035;SDS011;51603;49.300;8.880;2022-08-25T04:03:54;8.23;;;7.40;;
65035;SDS011;51603;49.300;8.880;2022-08-25T04:06:20;7.93;;;7.13;;
65035;SDS011;51603;49.300;8.880;2022-08-25T04:08:46;8.63;;;7.83;;
65035;SDS011;51603;49.300;8.880;2022-08-25T04:11:17;8.53;;;7.30;;
65035;SDS011;51603;49.300;8.880;2022-08-25T04:13:44;9.20;;;7.33;;
65035;SDS011;51603;49.300;8.880;2022-08-25T04:18:38;9.00;;;8.20;;
65035;SDS011;51603;49.300;8.880;2022-08-25T04:21:06;8.57;;;7.77;;
65035;SDS011;51603;49.300;8.880;2022-08-25T04:23:34;8.90;;;8.03;;
65035;SDS011;51603;49.300;8.880;2022-08-25T04:26:01;8.87;;;7.97;;
65035;SDS011;51603;49.300;8.880;2022-08-25T04:28:31;8.13;;;7.40;;
65035;SDS011;51603;49.300;8.880;2022-08-25T04:30:57;8.80;;;7.93;;
65035;SDS011;51603;49.300;8.880;2022-08-25T04:33:22;7.70;;;7.00;;
65035;SDS011;51603;49.300;8.880;2022-08-25T04:35:48;7.97;;;7.20;;
65035;SDS011;51603;49.300;8.880;2022-08-25T04:38:14;8.63;;;7.90;;
65035;SDS011;51603;49.300;8.880;2022-08-25T04:40:40;8.50;;;7.80;;
65035;SDS011;51603;49.300;8.880;2022-08-25T04:43:06;8.80;;;7.90;;
65035;SDS011;51603;49.300;8.880;2022-08-25T04:45:35;8.43;;;7.70;;
65035;SDS011;51603;49.300;8.880;2022-08-25T04:48:03;8.73;;;7.70;;
65035;SDS011;51603;49.300;8.880;2022-08-25T04:50:29;9.03;;;8.20;;
65035;SDS011;51603;49.300;8.880;2022-08-25T04:52:55;8.77;;;7.87;;
65035;SDS011;51603;49.300;8.880;2022-08-25T04:55:21;9.70;;;8.50;;
65035;SDS011;51603;49.300;8.880;2022-08-25T04:57:47;9.33;;;8.10;;
65035;SDS011;51603;49.300;8.880;2022-08-25T05:00:13;9.17;;;8.03;;
65035;SDS011;51603;49.300;8.880;2022-08-25T05:02:39;8.53;;;7.83;;
65035;SDS011;51603;49.300;8.880;2022-08-25T05:05:05;9.40;;;8.40;;
65035;SDS011;51603;49.300;8.880;2022-08-25T05:07:31;8.17;;;7.40;;
65035;SDS011;51603;49.300;8.880;2022-08-25T05:09:57;8.53;;;7.83;;
65035;SDS011;51603;49.300;8.880;2022-08-25T05:12:22;9.57;;;8.67;;
65035;SDS011;51603;49.300;8.880;2022-08-25T05:14:50;8.87;;;8.07;;
65035;SDS011;51603;49.300;8.880;2022-08-25T05:17:17;8.83;;;8.03;;
65035;SDS011;51603;49.300;8.880;2022-08-25T05:19:43;9.73;;;7.30;;
65035;SDS011;51603;49.300;8.880;2022-08-25T05:22:08;9.37;;;8.47;;
65035;SDS011;51603;49.300;8.880;2022-08-25T05:24:34;8.43;;;7.57;;
65035;SDS011;51603;49.300;8.880;2022-08-25T05:27:00;9.20;;;8.30;;
65035;SDS011;51603;49.300;8.880;2022-08-25T05:29:27;8.83;;;8.03;;
65035;SDS011;51603;49.300;8.880;2022-08-25T05:31:52;8.33;;;7.53;;
65035;SDS011;51603;49.300;8.880;2022-08-25T05:34:18;9.90;;;8.90;;
65035;SDS011;51603;49.300;8.880;2022-08-25T05:36:44;9.17;;;8.27;;
65035;SDS011;51603;49.300;8.880;2022-08-25T05:39:10;9.73;;;8.73;;
65035;SDS011;51603;49.300;8.880;2022-08-25T05:41:36;9.33;;;8.43;;
65035;SDS011;51603;49.300;8.880;2022-08-25T05:44:02;10.30;;;9.20;;
65035;SDS011;51603;49.300;8.880;2022-08-25T05:46:28;9.93;;;9.03;;
65035;SDS011;51603;49.300;8.880;2022-08-25T05:48:54;10.07;;;8.83;;
65035;SDS011;51603;49.300;8.880;2022-08-25T05:51:20;10.40;;;9.50;;
65035;SDS011;51603;49.300;8.880;2022-08-25T05:53:47;9.83;;;8.83;;
65035;SDS011;51603;49.300;8.880;2022-08-25T05:56:14;9.73;;;8.80;;
65035;SDS011;51603;49.300;8.880;2022-08-25T05:58:41;9.63;;;8.73;;
65035;SDS011;51603;49.300;8.880;2022-08-25T06:01:07;9.93;;;8.93;;
65035;SDS011;51603;49.300;8.880;2022-08-25T06:03:52;10.53;;;9.63;;
65035;SDS011;51603;49.300;8.880;2022-08-25T06:06:18;11.10;;;9.40;;
65035;SDS011;51603;49.300;8.880;2022-08-25T06:08:45;9.87;;;8.87;;
65035;SDS011;51603;49.300;8.880;2022-08-25T06:11:11;9.73;;;8.80;;
65035;SDS011;51603;49.300;8.880;2022-08-25T06:13:37;10.77;;;9.77;;
65035;SDS011;51603;49.300;8.880;2022-08-25T06:16:04;10.27;;;9.43;;
65035;SDS011;51603;49.300;8.880;2022-08-25T06:18:30;9.77;;;8.70;;
65035;SDS011;51603;49.300;8.880;2022-08-25T06:20:55;10.80;;;9.80;;
65035;SDS011;51603;49.300;8.880;2022-08-25T06:23:21;10.70;;;9.70;;
65035;SDS011;51603;49.300;8.880;2022-08-25T06:25:50;14.33;;;10.57;;
65035;SDS011;51603;49.300;8.880;2022-08-25T06:28:17;10.37;;;9.47;;
65035;SDS011;51603;49.300;8.880;2022-08-25T06:30:44;10.00;;;9.00;;
65035;SDS011;51603;49.300;8.880;2022-08-25T06:33:10;10.43;;;8.90;;
65035;SDS011;51603;49.300;8.880;2022-08-25T06:35:36;10.40;;;9.40;;
65035;SDS011;51603;49.300;8.880;2022-08-25T06:38:05;10.67;;;9.70;;
65035;SDS011;51603;49.300;8.880;2022-08-25T06:40:31;10.37;;;9.47;;
65035;SDS011;51603;49.300;8.880;2022-08-25T06:42:56;10.07;;;9.03;;
65035;SDS011;51603;49.300;8.880;2022-08-25T06:45:22;10.60;;;9.60;;
65035;SDS011;51603;49.300;8.880;2022-08-25T06:47:47;9.27;;;8.43;;
65035;SDS011;51603;49.300;8.880;2022-08-25T06:50:13;9.60;;;8.73;;
65035;SDS011;51603;49.300;8.880;2022-08-25T06:52:38;13.60;;;9.60;;
65035;SDS011;51603;49.300;8.880;2022-08-25T06:55:04;10.20;;;9.30;;
65035;SDS011;51603;49.300;8.880;2022-08-25T06:57:30;9.83;;;8.93;;
65035;SDS011;51603;49.300;8.880;2022-08-25T06:59:59;10.33;;;9.40;;
65035;SDS011;51603;49.300;8.880;2022-08-25T07:02:25;10.43;;;9.43;;
65035;SDS011;51603;49.300;8.880;2022-08-25T07:04:51;9.60;;;8.63;;
65035;SDS011;51603;49.300;8.880;2022-08-25T07:07:17;11.00;;;8.80;;
65035;SDS011;51603;49.300;8.880;2022-08-25T07:09:43;10.37;;;9.40;;
65035;SDS011;51603;49.300;8.880;2022-08-25T07:12:09;10.00;;;9.10;;
65035;SDS011;51603;49.300;8.880;2022-08-25T07:14:34;9.00;;;8.20;;
65035;SDS011;51603;49.300;8.880;2022-08-25T07:17:00;10.63;;;8.83;;
65035;SDS011;51603;49.300;8.880;2022-08-25T07:19:27;10.13;;;9.10;;
65035;SDS011;51603;49.300;8.880;2022-08-25T07:21:53;9.37;;;8.47;;
65035;SDS011;51603;49.300;8.880;2022-08-25T07:24:18;9.07;;;8.37;;
65035;SDS011;51603;49.300;8.880;2022-08-25T07:26:45;9.40;;;8.60;;
65035;SDS011;51603;49.300;8.880;2022-08-25T07:29:21;8.80;;;8.00;;
65035;SDS011;51603;49.300;8.880;2022-08-25T07:31:49;9.03;;;8.13;;
65035;SDS011;51603;49.300;8.880;2022-08-25T07:34:14;9.00;;;8.10;;
65035;SDS011;51603;49.300;8.880;2022-08-25T07:36:59;10.23;;;9.17;;
65035;SDS011;51603;49.300;8.880;2022-08-25T07:39:28;9.70;;;8.80;;
65035;SDS011;51603;49.300;8.880;2022-08-25T07:41:54;9.47;;;8.57;;
65035;SDS011;51603;49.300;8.880;2022-08-25T07:44:20;7.77;;;7.00;;
65035;SDS011;51603;49.300;8.880;2022-08-25T07:46:46;8.93;;;8.03;;
65035;SDS011;51603;49.300;8.880;2022-08-25T07:49:12;10.53;;;8.03;;
65035;SDS011;51603;49.300;8.880;2022-08-25T07:51:38;8.73;;;8.03;;
65035;SDS011;51603;49.300;8.880;2022-08-25T07:54:04;8.43;;;7.73;;
65035;SDS011;51603;49.300;8.880;2022-08-25T07:56:30;8.97;;;8.07;;
65035;SDS011;51603;49.300;8.880;2022-08-25T07:58:55;11.00;;;7.47;;
65035;SDS011;51603;49.300;8.880;2022-08-25T08:01:22;8.07;;;7.27;;
65035;SDS011;51603;49.300;8.880;2022-08-25T08:03:48;8.10;;;7.40;;
65035;SDS011;51603;49.300;8.880;2022-08-25T08:06:16;9.60;;;7.20;;
65035;SDS011;51603;49.300;8.880;2022-08-25T08:08:43;7.80;;;6.97;;
65035;SDS011;51603;49.300;8.880;2022-08-25T08:11:16;6.80;;;6.20;;
65035;SDS011;51603;49.300;8.880;2022-08-25T08:13:45;7.60;;;7.00;;
65035;SDS011;51603;49.300;8.880;2022-08-25T08:16:12;7.30;;;6.70;;
65035;SDS011;51603;49.300;8.880;2022-08-25T08:18:40;7.20;;;6.60;;
65035;SDS011;51603;49.300;8.880;2022-08-25T08:21:14;7.17;;;6.57;;
65035;SDS011;51603;49.300;8.880;2022-08-25T08:23:42;8.57;;;7.07;;
65035;SDS011;51603;49.300;8.880;2022-08-25T08:26:08;6.60;;;6.00;;
65035;SDS011;51603;49.300;8.880;2022-08-25T08:28:34;7.83;;;6.67;;
65035;SDS011;51603;49.300;8.880;2022-08-25T08:30:59;7.00;;;6.30;;
65035;SDS011;51603;49.300;8.880;2022-08-25T08:33:25;6.87;;;6.17;;
65035;SDS011;51603;49.300;8.880;2022-08-25T08:35:59;6.97;;;6.27;;
65035;SDS011;51603;49.300;8.880;2022-08-25T08:38:28;6.87;;;6.27;;
65035;SDS011;51603;49.300;8.880;2022-08-25T08:40:59;7.30;;;6.60;;
65035;SDS011;51603;49.300;8.880;2022-08-25T08:44:15;9.10;;;6.00;;
65035;SDS011;51603;49.300;8.880;2022-08-25T08:52:37;7.30;;;5.63;;
65035;SDS011;51603;49.300;8.880;2022-08-25T08:57:56;7.00;;;6.40;;
65035;SDS011;51603;49.300;8.880;2022-08-25T09:00:25;5.60;;;5.10;;
65035;SDS011;51603;49.300;8.880;2022-08-25T09:02:57;10.63;;;5.67;;
65035;SDS011;51603;49.300;8.880;2022-08-25T09:05:29;5.63;;;5.20;;
65035;SDS011;51603;49.300;8.880;2022-08-25T09:08:06;5.60;;;5.00;;
65035;SDS011;51603;49.300;8.880;2022-08-25T09:10:39;5.30;;;4.80;;
65035;SDS011;51603;49.300;8.880;2022-08-25T09:13:15;5.47;;;4.97;;
65035;SDS011;51603;49.300;8.880;2022-08-25T09:24:58;5.83;;;5.33;;
65035;SDS011;51603;49.300;8.880;2022-08-25T09:27:42;5.00;;;4.60;;
65035;SDS011;51603;49.300;8.880;2022-08-25T09:30:16;5.77;;;5.27;;
65035;SDS011;51603;49.300;8.880;2022-08-25T09:32:45;6.50;;;4.83;;
65035;SDS011;51603;49.300;8.880;2022-08-25T09:35:16;5.57;;;4.97;;
65035;SDS011;51603;49.300;8.880;2022-08-25T09:40:34;5.20;;;4.70;;
65035;SDS011;51603;49.300;8.880;2022-08-25T09:43:03;6.47;;;4.60;;
65035;SDS011;51603;49.300;8.880;2022-08-25T09:45:43;7.13;;;4.70;;
65035;SDS011;51603;49.300;8.880;2022-08-25T09:48:18;4.80;;;4.40;;
65035;SDS011;51603;49.300;8.880;2022-08-25T09:50:50;5.10;;;4.63;;
65035;SDS011;51603;49.300;8.880;2022-08-25T09:53:21;4.60;;;4.00;;
65035;SDS011;51603;49.300;8.880;2022-08-25T09:55:51;4.67;;;4.20;;
65035;SDS011;51603;49.300;8.880;2022-08-25T09:58:24;5.33;;;4.47;;
65035;SDS011;51603;49.300;8.880;2022-08-25T10:03:58;6.77;;;5.40;;
65035;SDS011;51603;49.300;8.880;2022-08-25T10:06:30;5.07;;;4.60;;
65035;SDS011;51603;49.300;8.880;2022-08-25T10:09:03;5.10;;;4.60;;
65035;SDS011;51603;49.300;8.880;2022-08-25T10:11:32;5.13;;;4.63;;
65035;SDS011;51603;49.300;8.880;2022-08-25T10:14:06;5.43;;;4.93;;
65035;SDS011;51603;49.300;8.880;2022-08-25T10:16:41;5.50;;;5.07;;
65035;SDS011;51603;49.300;8.880;2022-08-25T10:19:11;5.87;;;4.70;;
65035;SDS011;51603;49.300;8.880;2022-08-25T10:22:00;4.93;;;4.53;;
65035;SDS011;51603;49.300;8.880;2022-08-25T10:24:44;4.43;;;4.13;;
65035;SDS011;51603;49.300;8.880;2022-08-25T10:32:41;5.73;;;5.20;;
65035;SDS011;51603;49.300;8.880;2022-08-25T10:35:16;5.10;;;4.60;;
65035;SDS011;51603;49.300;8.880;2022-08-25T10:37:53;4.47;;;4.07;;
65035;SDS011;51603;49.300;8.880;2022-08-25T10:40:37;5.07;;;4.67;;
65035;SDS011;51603;49.300;8.880;2022-08-25T10:43:28;6.03;;;5.53;;
65035;SDS011;51603;49.300;8.880;2022-08-25T10:46:35;5.60;;;5.03;;
65035;SDS011;51603;49.300;8.880;2022-08-25T10:49:24;4.90;;;4.50;;
65035;SDS011;51603;49.300;8.880;2022-08-25T10:52:16;7.93;;;4.67;;
65035;SDS011;51603;49.300;8.880;2022-08-25T11:01:04;5.37;;;4.87;;
65035;SDS011;51603;49.300;8.880;2022-08-25T11:04:01;5.77;;;5.27;;
65035;SDS011;51603;49.300;8.880;2022-08-25T11:06:47;5.47;;;5.07;;
65035;SDS011;51603;49.300;8.880;2022-08-25T11:09:19;5.43;;;4.93;;
65035;SDS011;51603;49.300;8.880;2022-08-25T11:11:51;5.70;;;5.00;;
65035;SDS011;51603;49.300;8.880;2022-08-25T11:14:20;5.17;;;4.73;;
65035;SDS011;51603;49.300;8.880;2022-08-25T11:19:24;5.80;;;4.93;;
65035;SDS011;51603;49.300;8.880;2022-08-25T11:22:11;5.23;;;4.73;;
65035;SDS011;51603;49.300;8.880;2022-08-25T11:27:36;5.50;;;5.00;;
65035;SDS011;51603;49.300;8.880;2022-08-25T11:32:47;4.80;;;4.40;;
65035;SDS011;51603;49.300;8.880;2022-08-25T11:35:19;6.30;;;4.77;;
65035;SDS011;51603;49.300;8.880;2022-08-25T11:40:21;4.73;;;4.27;;
65035;SDS011;51603;49.300;8.880;2022-08-25T11:48:54;8.07;;;4.70;;
65035;SDS011;51603;49.300;8.880;2022-08-25T11:51:42;4.70;;;4.30;;
65035;SDS011;51603;49.300;8.880;2022-08-25T11:54:15;4.90;;;4.40;;
65035;SDS011;51603;49.300;8.880;2022-08-25T11:56:56;4.23;;;3.83;;
65035;SDS011;51603;49.300;8.880;2022-08-25T12:05:05;4.33;;;3.97;;
65035;SDS011;51603;49.300;8.880;2022-08-25T12:13:28;4.20;;;3.70;;
65035;SDS011;51603;49.300;8.880;2022-08-25T12:30:07;4.27;;;3.87;;
65035;SDS011;51603;49.300;8.880;2022-08-25T12:32:58;4.40;;;3.53;;
65035;SDS011;51603;49.300;8.880;2022-08-25T12:38:27;6.30;;;3.77;;
65035;SDS011;51603;49.300;8.880;2022-08-25T12:40:59;4.70;;;4.30;;
65035;SDS011;51603;49.300;8.880;2022-08-25T12:44:07;4.70;;;4.30;;
65035;SDS011;51603;49.300;8.880;2022-08-25T12:46:35;4.40;;;4.00;;
65035;SDS011;51603;49.300;8.880;2022-08-25T12:56:58;3.90;;;3.50;;
65035;SDS011;51603;49.300;8.880;2022-08-25T12:59:34;3.63;;;3.33;;
65035;SDS011;51603;49.300;8.880;2022-08-25T13:07:54;4.27;;;3.87;;
65035;SDS011;51603;49.300;8.880;2022-08-25T13:10:36;5.07;;;3.90;;
65035;SDS011;51603;49.300;8.880;2022-08-25T13:13:22;4.47;;;4.00;;
65035;SDS011;51603;49.300;8.880;2022-08-25T13:15:59;4.23;;;3.83;;
65035;SDS011;51603;49.300;8.880;2022-08-25T13:18:35;3.57;;;3.37;;
65035;SDS011;51603;49.300;8.880;2022-08-25T13:23:47;4.93;;;3.57;;
65035;SDS011;51603;49.300;8.880;2022-08-25T13:26:32;4.43;;;3.53;;
65035;SDS011;51603;49.300;8.880;2022-08-25T13:31:37;4.73;;;3.73;;
65035;SDS011;51603;49.300;8.880;2022-08-25T13:34:18;3.80;;;3.50;;
65035;SDS011;51603;49.300;8.880;2022-08-25T13:36:46;3.60;;;3.30;;
65035;SDS011;51603;49.300;8.880;2022-08-25T13:39:31;5.10;;;3.60;;
65035;SDS011;51603;49.300;8.880;2022-08-25T13:41:59;4.03;;;3.73;;
65035;SDS011;51603;49.300;8.880;2022-08-25T13:44:27;3.17;;;2.87;;
65035;SDS011;51603;49.300;8.880;2022-08-25T13:47:04;3.33;;;3.03;;
65035;SDS011;51603;49.300;8.880;2022-08-25T13:49:33;4.30;;;3.60;;
65035;SDS011;51603;49.300;8.880;2022-08-25T13:52:00;6.10;;;3.30;;
65035;SDS011;51603;49.300;8.880;2022-08-25T13:54:30;3.40;;;3.10;;
65035;SDS011;51603;49.300;8.880;2022-08-25T13:57:03;3.90;;;2.70;;
65035;SDS011;51603;49.300;8.880;2022-08-25T13:59:51;4.03;;;3.63;;
65035;SDS011;51603;49.300;8.880;2022-08-25T14:05:07;3.80;;;3.07;;
65035;SDS011;51603;49.300;8.880;2022-08-25T14:07:34;4.07;;;3.30;;
65035;SDS011;51603;49.300;8.880;2022-08-25T14:17:41;3.93;;;3.43;;
65035;SDS011;51603;49.300;8.880;2022-08-25T14:20:18;3.77;;;3.13;;
65035;SDS011;51603;49.300;8.880;2022-08-25T14:22:48;3.63;;;3.33;;
65035;SDS011;51603;49.300;8.880;2022-08-25T14:25:18;5.90;;;3.60;;
65035;SDS011;51603;49.300;8.880;2022-08-25T14:27:44;3.87;;;3.40;;
65035;SDS011;51603;49.300;8.880;2022-08-25T14:30:20;4.00;;;3.70;;
65035;SDS011;51603;49.300;8.880;2022-08-25T14:32:45;4.70;;;3.30;;
65035;SDS011;51603;49.300;8.880;2022-08-25T14:35:11;5.60;;;3.47;;
65035;SDS011;51603;49.300;8.880;2022-08-25T14:37:36;4.23;;;3.37;;
65035;SDS011;51603;49.300;8.880;2022-08-25T14:40:02;3.70;;;3.40;;
65035;SDS011;51603;49.300;8.880;2022-08-25T14:42:28;3.93;;;3.13;;
65035;SDS011;51603;49.300;8.880;2022-08-25T14:44:54;3.43;;;3.13;;
65035;SDS011;51603;49.300;8.880;2022-08-25T14:47:19;5.90;;;3.00;;
65035;SDS011;51603;49.300;8.880;2022-08-25T14:49:45;3.20;;;2.83;;
65035;SDS011;51603;49.300;8.880;2022-08-25T14:52:15;4.53;;;3.77;;
65035;SDS011;51603;49.300;8.880;2022-08-25T14:54:44;2.90;;;2.70;;
65035;SDS011;51603;49.300;8.880;2022-08-25T14:57:10;4.23;;;3.30;;
65035;SDS011;51603;49.300;8.880;2022-08-25T14:59:36;3.13;;;2.50;;
65035;SDS011;51603;49.300;8.880;2022-08-25T15:02:01;4.00;;;3.10;;
65035;SDS011;51603;49.300;8.880;2022-08-25T15:04:30;3.43;;;3.13;;
65035;SDS011;51603;49.300;8.880;2022-08-25T15:06:57;3.90;;;3.50;;
65035;SDS011;51603;49.300;8.880;2022-08-25T15:09:25;5.67;;;3.20;;
65035;SDS011;51603;49.300;8.880;2022-08-25T15:11:52;3.60;;;2.83;;
65035;SDS011;51603;49.300;8.880;2022-08-25T15:14:19;3.03;;;2.80;;
65035;SDS011;51603;49.300;8.880;2022-08-25T15:16:48;3.10;;;2.80;;
65035;SDS011;51603;49.300;8.880;2022-08-25T15:19:16;5.50;;;2.93;;
65035;SDS011;51603;49.300;8.880;2022-08-25T15:21:44;3.73;;;3.03;;
65035;SDS011;51603;49.300;8.880;2022-08-25T15:24:12;5.40;;;2.93;;
65035;SDS011;51603;49.300;8.880;2022-08-25T15:26:43;3.20;;;2.90;;
65035;SDS011;51603;49.300;8.880;2022-08-25T15:29:15;3.60;;;3.30;;
65035;SDS011;51603;49.300;8.880;2022-08-25T15:31:41;3.80;;;3.27;;
65035;SDS011;51603;49.300;8.880;2022-08-25T15:34:07;4.17;;;3.30;;
65035;SDS011;51603;49.300;8.880;2022-08-25T15:36:33;4.20;;;3.40;;
65035;SDS011;51603;49.300;8.880;2022-08-25T15:39:00;4.30;;;3.47;;
65035;SDS011;51603;49.300;8.880;2022-08-25T15:41:26;4.30;;;3.10;;
65035;SDS011;51603;49.300;8.880;2022-08-25T15:43:53;4.53;;;3.40;;
65035;SDS011;51603;49.300;8.880;2022-08-25T15:46:19;3.90;;;3.20;;
65035;SDS011;51603;49.300;8.880;2022-08-25T15:48:47;3.63;;;3.33;;
65035;SDS011;51603;49.300;8.880;2022-08-25T15:51:14;4.13;;;3.07;;
65035;SDS011;51603;49.300;8.880;2022-08-25T15:53:41;3.33;;;3.03;;
65035;SDS011;51603;49.300;8.880;2022-08-25T15:56:07;2.73;;;2.53;;
65035;SDS011;51603;49.300;8.880;2022-08-25T15:58:33;3.63;;;3.00;;
65035;SDS011;51603;49.300;8.880;2022-08-25T16:00:59;4.30;;;2.93;;
65035;SDS011;51603;49.300;8.880;2022-08-25T16:03:25;5.53;;;3.40;;
65035;SDS011;51603;49.300;8.880;2022-08-25T16:05:51;3.37;;;2.73;;
65035;SDS011;51603;49.300;8.880;2022-08-25T16:08:16;3.03;;;2.73;;
65035;SDS011;51603;49.300;8.880;2022-08-25T16:10:42;3.73;;;3.43;;
65035;SDS011;51603;49.300;8.880;2022-08-25T16:13:08;5.80;;;3.90;;
65035;SDS011;51603;49.300;8.880;2022-08-25T16:15:34;3.30;;;3.00;;
65035;SDS011;51603;49.300;8.880;2022-08-25T16:18:01;3.10;;;2.80;;
65035;SDS011;51603;49.300;8.880;2022-08-25T16:20:28;4.47;;;3.63;;
65035;SDS011;51603;49.300;8.880;2022-08-25T16:22:55;3.87;;;3.27;;
65035;SDS011;51603;49.300;8.880;2022-08-25T16:25:23;4.03;;;3.60;;
65035;SDS011;51603;49.300;8.880;2022-08-25T16:27:49;3.20;;;2.90;;
65035;SDS011;51603;49.300;8.880;2022-08-25T16:30:15;3.50;;;3.20;;
65035;SDS011;51603;49.300;8.880;2022-08-25T16:32:40;3.93;;;3.07;;
65035;SDS011;51603;49.300;8.880;2022-08-25T16:35:06;4.03;;;3.73;;
65035;SDS011;51603;49.300;8.880;2022-08-25T16:37:33;4.30;;;3.90;;
65035;SDS011;51603;49.300;8.880;2022-08-25T16:39:59;4.37;;;3.97;;
65035;SDS011;51603;49.300;8.880;2022-08-25T16:42:25;5.07;;;3.80;;
65035;SDS011;51603;49.300;8.880;2022-08-25T16:44:52;3.63;;;3.33;;
65035;SDS011;51603;49.300;8.880;2022-08-25T16:47:18;3.67;;;3.13;;
65035;SDS011;51603;49.300;8.880;2022-08-25T16:49:46;3.50;;;3.20;;
65035;SDS011;51603;49.300;8.880;2022-08-25T16:52:12;4.83;;;3.20;;
65035;SDS011;51603;49.300;8.880;2022-08-25T16:54:57;4.13;;;3.73;;
65035;SDS011;51603;49.300;8.880;2022-08-25T16:57:39;3.53;;;3.23;;
65035;SDS011;51603;49.300;8.880;2022-08-25T17:00:18;4.80;;;3.40;;